Time;durP1;ratioP1;P1;durP2;ratioP2;P2;SDS_P1;SDS_P2;PMS_P1;PMS_P2;Temp;Humidity;BMP_temperature;BMP_pressure;BME280_temperature;BME280_humidity;BME280_pressure;Samples;Min_cycle;Max_cycle;Signal;HPM_P1;HPM_P2
2023/07/28 00:01:30;;;;;;;3.20;2.97;;;20.10;56.70;;;;;;20905;6726;116921;-70
2023/07/28 00:04:09;;;;;;;3.58;3.37;;;20.00;56.60;;;;;;20688;6726;277354;-69
2023/07/28 00:06:42;;;;;;;3.60;3.30;;;20.10;56.70;;;;;;20911;6730;117311;-69
2023/07/28 00:09:17;;;;;;;3.30;3.10;;;19.90;57.30;;;;;;20760;6709;304199;-69
2023/07/28 00:11:54;;;;;;;2.97;2.87;;;19.90;56.60;;;;;;20950;6711;118842;-69
2023/07/28 00:14:29;;;;;;;3.40;3.20;;;19.80;56.60;;;;;;20705;6711;306289;-69
2023/07/28 00:17:05;;;;;;;3.40;3.20;;;19.90;56.70;;;;;;21011;6696;116598;-69
2023/07/28 00:19:40;;;;;;;3.50;3.30;;;19.80;56.70;;;;;;20726;6696;278002;-69
2023/07/28 00:22:16;;;;;;;3.50;3.20;;;20.00;56.80;;;;;;20893;6726;116890;-69
2023/07/28 00:24:52;;;;;;;3.80;3.50;;;19.80;56.70;;;;;;20612;6726;281915;-69
2023/07/28 00:27:27;;;;;;;3.80;3.50;;;19.90;56.80;;;;;;20735;6711;275764;-69
2023/07/28 00:30:03;;;;;;;3.40;3.30;;;20.10;56.30;;;;;;20710;6723;307447;-69
2023/07/28 00:32:38;;;;;;;3.92;3.62;;;20.30;56.10;;;;;;20709;6723;335609;-69
2023/07/28 00:35:14;;;;;;;3.50;3.30;;;20.40;55.90;;;;;;20814;6723;121964;-69
2023/07/28 00:37:50;;;;;;;3.47;3.17;;;20.10;56.00;;;;;;20700;6723;304763;-68
2023/07/28 00:40:25;;;;;;;3.00;2.80;;;20.00;56.50;;;;;;20931;6723;116682;-69
2023/07/28 00:43:01;;;;;;;2.70;2.60;;;19.80;56.70;;;;;;20931;6723;117141;-69
2023/07/28 00:45:37;;;;;;;2.70;2.50;;;19.30;57.80;;;;;;20761;6723;117266;-69
2023/07/28 00:48:13;;;;;;;3.47;3.17;;;19.20;57.70;;;;;;20708;6723;305036;-69
2023/07/28 00:50:48;;;;;;;2.97;2.77;;;19.50;58.30;;;;;;20933;6723;116877;-68
2023/07/28 00:53:24;;;;;;;3.10;2.90;;;19.40;57.90;;;;;;20980;6708;117255;-69
2023/07/28 00:55:59;;;;;;;2.77;2.67;;;19.30;58.20;;;;;;20788;6708;117053;-69
2023/07/28 00:58:35;;;;;;;3.28;3.08;;;19.10;58.40;;;;;;20704;6728;306642;-69
2023/07/28 01:01:11;;;;;;;3.57;3.37;;;19.30;59.20;;;;;;20725;6721;293221;-69
2023/07/28 01:03:46;;;;;;;3.23;3.00;;;19.70;57.90;;;;;;20773;6758;117015;-69
2023/07/28 01:06:35;;;;;;;3.30;3.10;;;19.60;57.70;;;;;;20591;6760;306147;-69
2023/07/28 01:09:14;;;;;;;3.77;3.20;;;19.70;57.70;;;;;;20865;6744;117368;-70
2023/07/28 01:12:02;;;;;;;3.07;2.87;;;19.50;57.70;;;;;;20975;6699;117879;-70
2023/07/28 01:14:34;;;;;;;3.42;3.30;;;19.20;58.10;;;;;;20677;6719;306629;-70
2023/07/28 01:17:11;;;;;;;3.00;2.90;;;19.30;57.80;;;;;;20990;6711;116875;-69
2023/07/28 01:19:46;;;;;;;3.43;3.23;;;19.20;58.20;;;;;;20736;6696;308684;-70
2023/07/28 01:22:28;;;;;;;2.97;2.77;;;19.40;58.40;;;;;;20961;6711;116850;-70
2023/07/28 01:25:14;;;;;;;2.80;2.70;;;19.00;58.70;;;;;;20905;6696;116588;-70
2023/07/28 01:27:50;;;;;;;3.10;2.90;;;19.00;58.70;;;;;;20892;6719;120600;-69
2023/07/28 01:30:26;;;;;;;4.23;2.97;;;18.80;59.10;;;;;;20918;6726;116812;-69
2023/07/28 01:33:01;;;;;;;4.10;3.70;;;18.60;59.40;;;;;;20759;6709;300595;-70
2023/07/28 01:35:38;;;;;;;4.97;3.50;;;18.80;60.60;;;;;;20518;6719;331093;-69
2023/07/28 01:38:16;;;;;;;4.20;3.53;;;19.20;60.20;;;;;;20936;6719;119618;-70
2023/07/28 01:40:50;;;;;;;4.00;3.70;;;19.10;59.90;;;;;;20925;6723;116865;-70
2023/07/28 01:43:26;;;;;;;3.63;3.43;;;18.80;60.10;;;;;;20924;6723;116901;-70
2023/07/28 01:46:03;;;;;;;4.12;3.90;;;18.60;60.40;;;;;;20491;6719;277103;-70
2023/07/28 01:48:39;;;;;;;4.53;4.22;;;18.80;60.80;;;;;;20747;6714;284333;-70
2023/07/28 01:51:15;;;;;;;4.37;4.10;;;19.20;59.90;;;;;;20884;6738;116824;-70
2023/07/28 01:53:51;;;;;;;4.62;4.22;;;19.10;59.60;;;;;;20682;6723;305391;-70
2023/07/28 01:56:27;;;;;;;4.50;4.10;;;19.10;59.50;;;;;;20960;6713;116685;-70
2023/07/28 01:59:02;;;;;;;4.47;4.07;;;19.00;59.40;;;;;;20691;6728;275598;-69
2023/07/28 02:01:38;;;;;;;4.03;3.73;;;19.10;59.40;;;;;;20717;6713;309052;-69
2023/07/28 02:04:17;;;;;;;4.25;3.85;;;19.60;58.50;;;;;;20649;6728;310760;-70
2023/07/28 02:06:50;;;;;;;3.73;3.43;;;19.60;58.50;;;;;;20903;6723;118921;-69
2023/07/28 02:09:26;;;;;;;4.33;4.03;;;19.40;58.50;;;;;;20764;6708;275689;-70
2023/07/28 02:12:02;;;;;;;4.57;4.20;;;19.40;59.00;;;;;;20739;6708;309881;-70
2023/07/28 02:14:38;;;;;;;4.77;4.00;;;19.60;58.30;;;;;;20626;6723;340554;-69
2023/07/28 02:17:13;;;;;;;3.90;3.70;;;19.80;57.90;;;;;;20958;6714;117043;-70
2023/07/28 02:19:49;;;;;;;3.53;3.23;;;19.50;58.00;;;;;;20934;6714;122594;-69
2023/07/28 02:22:25;;;;;;;4.63;4.23;;;19.10;58.60;;;;;;20693;6729;304729;-69
2023/07/28 02:25:02;;;;;;;4.60;4.28;;;19.50;59.30;;;;;;20607;6714;341504;-69
2023/07/28 02:27:37;;;;;;;4.40;4.00;;;19.40;59.20;;;;;;20935;6714;116824;-69
2023/07/28 02:30:12;;;;;;;4.53;4.20;;;19.30;59.20;;;;;;20701;6729;276445;-70
2023/07/28 02:32:48;;;;;;;4.30;4.00;;;19.30;59.40;;;;;;20752;6714;275491;-69
2023/07/28 02:35:23;;;;;;;4.40;4.00;;;19.60;59.00;;;;;;20575;6729;284224;-69
2023/07/28 02:38:00;;;;;;;4.30;4.10;;;19.90;58.30;;;;;;20705;6723;285017;-69
2023/07/28 02:40:37;;;;;;;4.10;3.90;;;19.90;58.00;;;;;;20757;6709;311698;-69
2023/07/28 02:43:12;;;;;;;4.00;3.30;;;20.00;57.60;;;;;;20926;6723;117700;-70
2023/07/28 02:45:55;;;;;;;3.27;2.97;;;19.80;57.80;;;;;;20717;6719;117693;-69
2023/07/28 02:48:30;;;;;;;3.80;3.60;;;19.40;58.50;;;;;;20722;6719;297260;-69
2023/07/28 02:51:06;;;;;;;3.77;3.47;;;19.50;58.80;;;;;;20665;6738;297860;-69
2023/07/28 02:53:41;;;;;;;3.97;3.78;;;19.80;58.40;;;;;;20674;6738;275909;-69
2023/07/28 02:56:20;;;;;;;3.63;3.33;;;19.90;58.00;;;;;;20901;6734;117645;-69
2023/07/28 02:58:53;;;;;;;3.90;3.60;;;19.80;58.10;;;;;;20692;6728;306435;-68
2023/07/28 03:01:35;;;;;;;3.90;3.60;;;19.80;58.30;;;;;;20745;6713;304434;-69
2023/07/28 03:04:10;;;;;;;3.85;3.55;;;19.90;58.00;;;;;;20676;6728;281292;-69
2023/07/28 03:06:46;;;;;;;4.10;3.80;;;20.10;57.60;;;;;;20740;6728;303863;-69
2023/07/28 03:09:21;;;;;;;3.85;3.53;;;20.20;57.40;;;;;;20748;6713;275684;-69
2023/07/28 03:11:57;;;;;;;5.23;3.80;;;20.20;57.30;;;;;;20760;6713;275282;-68
2023/07/28 03:14:32;;;;;;;4.43;4.07;;;20.20;57.20;;;;;;20675;6714;306996;-69
2023/07/28 03:17:08;;;;;;;4.23;3.87;;;20.20;57.10;;;;;;20705;6728;276061;-69
2023/07/28 03:19:44;;;;;;;3.37;3.27;;;19.90;57.90;;;;;;20946;6714;122375;-69
2023/07/28 03:22:21;;;;;;;3.60;3.40;;;19.90;58.20;;;;;;20681;6728;304221;-69
2023/07/28 03:24:56;;;;;;;3.60;3.30;;;19.80;57.40;;;;;;20612;6720;277928;-68
2023/07/28 03:27:32;;;;;;;3.55;3.30;;;20.10;56.90;;;;;;20709;6719;334142;-68
2023/07/28 03:30:11;;;;;;;3.27;2.90;;;20.10;56.90;;;;;;20945;6719;117190;-69
2023/07/28 03:32:46;;;;;;;3.50;3.30;;;19.90;57.10;;;;;;20723;6720;308373;-69
2023/07/28 03:35:23;;;;;;;3.67;3.42;;;20.00;57.90;;;;;;20563;6719;323318;-69
2023/07/28 03:38:01;;;;;;;3.10;2.90;;;20.00;57.20;;;;;;20929;6719;117038;-69
2023/07/28 03:40:34;;;;;;;3.50;3.30;;;19.80;57.30;;;;;;20728;6719;310694;-73
2023/07/28 03:43:10;;;;;;;3.72;3.42;;;20.00;57.50;;;;;;20712;6720;315778;-72
2023/07/28 03:45:49;;;;;;;3.83;3.30;;;20.00;57.50;;;;;;20511;6724;302948;-72
2023/07/28 03:48:22;;;;;;;3.47;3.27;;;20.10;57.00;;;;;;20944;6718;117455;-73
2023/07/28 03:50:57;;;;;;;2.83;2.73;;;19.90;57.20;;;;;;20944;6718;117071;-72
2023/07/28 03:53:35;;;;;;;4.50;3.50;;;19.60;57.80;;;;;;20716;6718;305451;-72
2023/07/28 03:56:08;;;;;;;3.27;3.10;;;19.60;58.10;;;;;;20783;6774;117289;-73
2023/07/28 03:58:45;;;;;;;3.20;3.00;;;19.30;58.60;;;;;;20967;6718;116836;-72
2023/07/28 04:01:24;;;;;;;3.10;3.00;;;19.20;58.50;;;;;;20957;6718;115963;-73
2023/07/28 04:03:56;;;;;;;3.13;2.93;;;19.00;58.90;;;;;;20918;6718;118457;-72
2023/07/28 04:06:41;;;;;;;3.60;3.30;;;18.90;59.30;;;;;;20748;6718;299251;-72
2023/07/28 04:09:16;;;;;;;3.53;2.90;;;19.10;59.70;;;;;;20962;6717;117634;-72
2023/07/28 04:12:01;;;;;;;3.50;3.30;;;19.10;59.40;;;;;;20725;6717;307320;-72
2023/07/28 04:14:28;;;;;;;2.93;2.73;;;19.40;59.40;;;;;;20876;6717;117057;-73
2023/07/28 04:17:03;;;;;;;3.43;3.20;;;19.30;59.10;;;;;;20610;6717;303876;-70
2023/07/28 04:19:39;;;;;;;3.17;3.00;;;19.50;59.00;;;;;;20928;6718;117346;-70
2023/07/28 04:22:20;;;;;;;3.47;3.27;;;19.40;58.80;;;;;;20730;6718;305123;-69
2023/07/28 04:24:55;;;;;;;3.60;3.30;;;19.60;58.50;;;;;;20614;6718;338591;-69
2023/07/28 04:27:27;;;;;;;3.13;2.83;;;19.90;57.80;;;;;;20944;6718;116839;-69
2023/07/28 04:30:04;;;;;;;2.97;2.80;;;19.90;57.80;;;;;;20932;6718;117259;-69
2023/07/28 04:32:41;;;;;;;3.40;3.10;;;19.40;58.60;;;;;;20939;6718;116989;-70
2023/07/28 04:35:16;;;;;;;2.80;2.70;;;19.40;58.60;;;;;;20787;6718;116871;-70
2023/07/28 04:37:52;;;;;;;3.40;2.73;;;19.30;59.10;;;;;;20827;6718;121581;-70
2023/07/28 04:40:30;;;;;;;3.85;3.10;;;19.20;59.40;;;;;;20701;6718;334386;-69
2023/07/28 04:43:07;;;;;;;3.07;2.97;;;19.50;60.00;;;;;;20947;6718;117855;-69
2023/07/28 04:45:44;;;;;;;3.95;3.25;;;19.60;59.60;;;;;;20487;6718;336358;-69
2023/07/28 04:48:27;;;;;;;3.03;2.83;;;19.80;59.20;;;;;;20913;6774;117528;-71
2023/07/28 04:51:04;;;;;;;3.20;3.03;;;19.80;58.90;;;;;;20667;6726;276362;-72
2023/07/28 04:53:40;;;;;;;2.90;2.70;;;20.00;58.40;;;;;;20914;6716;117733;-72
2023/07/28 04:56:15;;;;;;;3.20;3.00;;;20.00;58.30;;;;;;20627;6745;305577;-72
2023/07/28 04:58:54;;;;;;;2.60;2.50;;;20.10;58.20;;;;;;20844;6735;116822;-73
2023/07/28 05:01:27;;;;;;;3.00;2.80;;;20.20;58.30;;;;;;20704;6726;278364;-73
2023/07/28 05:04:03;;;;;;;3.00;2.85;;;20.20;58.30;;;;;;20627;6731;311760;-72
2023/07/28 05:06:39;;;;;;;2.80;2.70;;;20.50;57.90;;;;;;20862;6731;122060;-73
2023/07/28 05:09:17;;;;;;;3.10;2.90;;;20.40;57.70;;;;;;20800;6748;116867;-72
2023/07/28 05:11:50;;;;;;;3.07;2.87;;;20.20;58.10;;;;;;20612;6734;399919;-73
2023/07/28 05:14:25;;;;;;;3.00;2.80;;;20.30;57.60;;;;;;20518;6714;303680;-76
2023/07/28 05:17:01;;;;;;;3.17;2.97;;;20.60;57.30;;;;;;20568;6748;308709;-72
2023/07/28 05:19:39;;;;;;;3.30;3.00;;;20.80;56.60;;;;;;20598;6735;344017;-73
2023/07/28 05:22:12;;;;;;;2.83;2.50;;;21.00;56.10;;;;;;20916;6713;117193;-73
2023/07/28 05:24:48;;;;;;;2.70;2.50;;;20.80;56.20;;;;;;20763;6748;116727;-79
2023/07/28 05:27:23;;;;;;;2.57;2.47;;;20.60;56.90;;;;;;20899;6734;117306;-73
2023/07/28 05:29:59;;;;;;;2.80;2.60;;;20.30;57.30;;;;;;20736;6713;304408;-74
2023/07/28 05:32:34;;;;;;;3.17;2.87;;;20.40;57.60;;;;;;20645;6743;334944;-73
2023/07/28 05:35:10;;;;;;;3.20;2.90;;;20.70;57.10;;;;;;20569;6743;313572;-75
2023/07/28 05:37:46;;;;;;;2.97;2.78;;;21.10;56.60;;;;;;20666;6743;308027;-74
2023/07/28 05:40:21;;;;;;;2.90;2.73;;;21.20;56.10;;;;;;20588;6739;305493;-75
2023/07/28 05:42:58;;;;;;;2.83;2.60;;;21.20;56.00;;;;;;20944;6716;116782;-73
2023/07/28 05:45:34;;;;;;;2.93;2.83;;;21.20;56.10;;;;;;20477;6746;309107;-73
2023/07/28 05:48:10;;;;;;;2.80;2.63;;;21.20;56.20;;;;;;20869;6741;117208;-72
2023/07/28 05:50:45;;;;;;;2.63;2.43;;;21.10;56.40;;;;;;20879;6734;117369;-72
2023/07/28 05:53:21;;;;;;;2.93;2.60;;;20.70;56.60;;;;;;20895;6749;115970;-72
2023/07/28 05:55:56;;;;;;;3.13;2.93;;;20.50;57.30;;;;;;20716;6734;119570;-73
2023/07/28 05:58:34;;;;;;;4.10;3.23;;;20.50;60.90;;;;;;20495;6734;307765;-74
2023/07/28 06:01:10;;;;;;;3.33;3.08;;;20.50;60.40;;;;;;20744;6715;333002;-72
2023/07/28 06:03:45;;;;;;;2.90;2.70;;;20.90;60.50;;;;;;20860;6715;120586;-75
2023/07/28 06:06:22;;;;;;;3.00;2.80;;;20.90;60.00;;;;;;20964;6715;117216;-73
2023/07/28 06:08:57;;;;;;;3.47;3.27;;;20.70;60.20;;;;;;20511;6721;307899;-72
2023/07/28 06:11:35;;;;;;;2.90;2.80;;;20.80;60.10;;;;;;20852;6741;127303;-76
2023/07/28 06:14:11;;;;;;;3.60;3.30;;;20.80;59.80;;;;;;20818;6746;117051;-72
2023/07/28 06:16:52;;;;;;;3.20;3.00;;;20.60;60.00;;;;;;20684;6736;277244;-73
2023/07/28 06:19:23;;;;;;;3.55;3.30;;;21.20;60.00;;;;;;20707;6736;309273;-73
2023/07/28 08:52:28;;;;;;;2.87;2.60;;;27.20;48.00;;;;;;21442;6474;66204;-76
2023/07/28 08:54:54;;;;;;;2.87;2.77;;;26.90;48.00;;;;;;20695;6758;306523;-76
2023/07/28 08:57:20;;;;;;;2.67;2.50;;;26.90;49.30;;;;;;20888;6792;117500;-77
2023/07/28 08:59:48;;;;;;;3.30;3.00;;;27.00;50.30;;;;;;20640;6792;306821;-76
2023/07/28 09:02:14;;;;;;;3.63;2.60;;;27.00;50.10;;;;;;20862;6793;117394;-76
2023/07/28 09:04:39;;;;;;;3.15;2.95;;;27.10;49.80;;;;;;20591;6794;311338;-75
2023/07/28 09:07:06;;;;;;;5.70;2.70;;;27.40;48.80;;;;;;20875;6794;118397;-76
2023/07/28 09:09:31;;;;;;;3.40;2.87;;;27.50;48.90;;;;;;20618;6794;305309;-77
2023/07/28 09:11:57;;;;;;;2.93;2.67;;;27.90;47.80;;;;;;20554;6824;307323;-77
2023/07/28 09:14:25;;;;;;;3.03;2.60;;;28.30;47.50;;;;;;20622;6809;290315;-75
2023/07/28 09:16:50;;;;;;;3.10;2.80;;;28.90;46.50;;;;;;20624;6809;305659;-77
2023/07/28 09:19:16;;;;;;;3.00;2.78;;;29.20;44.50;;;;;;20649;6798;306438;-77
2023/07/28 09:21:42;;;;;;;3.37;2.70;;;29.20;44.80;;;;;;20804;6813;117866;-79
2023/07/28 09:24:08;;;;;;;2.80;2.60;;;29.10;44.70;;;;;;20593;6813;276478;-76
2023/07/28 09:26:38;;;;;;;3.73;2.80;;;29.00;44.90;;;;;;20827;6806;116984;-77
2023/07/28 09:29:10;;;;;;;3.03;2.77;;;28.60;44.80;;;;;;20771;6826;117521;-77
2023/07/28 09:31:36;;;;;;;3.10;2.90;;;28.60;44.00;;;;;;20483;6806;307556;-78
2023/07/28 09:34:02;;;;;;;2.53;2.43;;;28.50;43.80;;;;;;20779;6830;117558;-76
2023/07/28 09:36:27;;;;;;;3.00;2.80;;;28.40;44.50;;;;;;20608;6809;335618;-77
2023/07/28 09:38:53;;;;;;;3.00;2.80;;;28.30;43.50;;;;;;20603;6824;281124;-77
2023/07/28 09:41:20;;;;;;;2.73;2.63;;;28.40;43.50;;;;;;20585;6824;307433;-76
2023/07/28 09:43:45;;;;;;;3.30;3.00;;;28.60;43.10;;;;;;20572;6809;306245;-77
2023/07/28 09:46:10;;;;;;;3.07;2.80;;;28.80;43.70;;;;;;20634;6808;306607;-79
2023/07/28 09:48:35;;;;;;;2.87;2.77;;;29.00;42.90;;;;;;20814;6818;117230;-77
2023/07/28 09:51:14;;;;;;;2.90;2.60;;;28.90;43.30;;;;;;20540;6832;280542;-77
2023/07/28 09:53:46;;;;;;;2.70;2.60;;;28.90;42.70;;;;;;20711;6839;127222;-78
2023/07/28 09:56:11;;;;;;;3.47;2.67;;;28.60;42.90;;;;;;20788;6821;117247;-78
2023/07/28 09:58:37;;;;;;;3.10;2.90;;;28.20;43.10;;;;;;20561;6823;343829;-77
2023/07/28 10:01:05;;;;;;;2.60;2.50;;;27.90;44.10;;;;;;20782;6817;117392;-74
2023/07/28 10:03:29;;;;;;;2.70;2.50;;;27.80;44.00;;;;;;20675;6835;117922;-77
2023/07/28 10:05:55;;;;;;;2.90;2.70;;;27.50;45.20;;;;;;20773;6815;118549;-76
2023/07/28 10:08:21;;;;;;;2.80;2.70;;;27.50;45.20;;;;;;20797;6816;116925;-76
2023/07/28 10:10:46;;;;;;;2.97;2.80;;;27.50;45.70;;;;;;20569;6818;306863;-76
2023/07/28 10:13:12;;;;;;;2.80;2.60;;;27.80;45.00;;;;;;20791;6818;118469;-77
2023/07/28 10:15:37;;;;;;;2.65;2.55;;;28.00;45.20;;;;;;20489;6818;278012;-77
2023/07/28 10:18:03;;;;;;;2.50;2.40;;;28.30;43.30;;;;;;20737;6832;119600;-77
2023/07/28 10:20:32;;;;;;;2.57;2.47;;;28.40;43.30;;;;;;20687;6832;117027;-79
2023/07/28 10:23:07;;;;;;;2.70;2.60;;;28.20;43.60;;;;;;20739;6818;116913;-75
2023/07/28 10:25:35;;;;;;;2.90;2.70;;;28.10;43.90;;;;;;20452;6834;306910;-75
2023/07/28 10:28:02;;;;;;;3.13;3.00;;;28.20;42.90;;;;;;20528;6815;302133;-80
2023/07/28 10:30:26;;;;;;;2.90;2.70;;;28.50;43.20;;;;;;20724;6821;117511;-80
2023/07/28 10:32:52;;;;;;;4.27;2.53;;;28.50;42.90;;;;;;20713;6821;122995;-76
2023/07/28 10:35:17;;;;;;;3.10;2.90;;;28.20;43.10;;;;;;20472;6821;281563;-81
2023/07/28 10:37:43;;;;;;;2.90;2.70;;;28.20;43.10;;;;;;20529;6817;276436;-81
2023/07/28 10:40:29;;;;;;;3.07;2.87;;;28.40;42.70;;;;;;20790;6817;118029;-80
2023/07/28 10:42:54;;;;;;;3.00;2.80;;;28.30;43.00;;;;;;20579;6817;335374;-78
2023/07/28 10:45:21;;;;;;;3.00;2.80;;;28.30;43.60;;;;;;20725;6834;118832;-80
2023/07/28 10:47:47;;;;;;;2.70;2.60;;;28.20;43.50;;;;;;20704;6815;117503;-79
2023/07/28 10:50:12;;;;;;;2.83;2.62;;;28.00;43.80;;;;;;20591;6815;317436;-82
2023/07/28 10:52:43;;;;;;;2.90;2.80;;;28.10;43.20;;;;;;20585;6815;339111;-80
2023/07/28 10:55:16;;;;;;;3.30;3.00;;;28.30;43.20;;;;;;20568;6815;306496;-78
2023/07/28 10:57:43;;;;;;;2.90;2.67;;;28.30;43.20;;;;;;20781;6815;118617;-75
2023/07/28 11:00:08;;;;;;;2.47;2.33;;;28.30;43.20;;;;;;20796;6815;117364;-76
2023/07/28 11:02:34;;;;;;;3.43;2.67;;;27.70;43.90;;;;;;20800;6815;117076;-75
2023/07/28 11:05:00;;;;;;;3.03;2.83;;;27.60;43.80;;;;;;20580;6815;308299;-75
2023/07/28 11:07:25;;;;;;;3.37;3.07;;;27.70;44.10;;;;;;20551;6815;281323;-77
2023/07/28 11:09:51;;;;;;;2.95;2.80;;;28.00;44.00;;;;;;20564;6815;306189;-77
2023/07/28 11:12:18;;;;;;;2.97;2.70;;;28.30;43.90;;;;;;20812;6815;117306;-76
2023/07/28 11:14:43;;;;;;;2.57;2.47;;;28.30;43.60;;;;;;20812;6813;116755;-78
2023/07/28 11:17:09;;;;;;;2.60;2.50;;;28.00;43.60;;;;;;20821;6815;117100;-79
2023/07/28 11:19:34;;;;;;;3.00;2.80;;;27.70;44.10;;;;;;20806;6815;117747;-79
2023/07/28 11:22:00;;;;;;;3.33;3.00;;;27.40;44.70;;;;;;20592;6815;280896;-79
2023/07/28 11:24:27;;;;;;;4.15;2.80;;;27.40;44.50;;;;;;20816;6815;117035;-77
2023/07/28 11:26:53;;;;;;;2.97;2.77;;;27.30;44.40;;;;;;20778;6815;119326;-79
2023/07/28 11:29:18;;;;;;;3.00;2.90;;;27.00;44.90;;;;;;20597;6815;288658;-74
2023/07/28 11:31:44;;;;;;;2.97;2.87;;;27.00;44.90;;;;;;20781;6815;117399;-74
2023/07/28 11:34:14;;;;;;;3.50;3.20;;;26.90;45.50;;;;;;20592;6815;307024;-74
2023/07/28 11:36:39;;;;;;;3.30;3.00;;;27.00;46.60;;;;;;20589;6815;307038;-74
2023/07/28 11:39:08;;;;;;;3.20;3.00;;;27.10;45.80;;;;;;20598;6815;340287;-79
2023/07/28 11:41:33;;;;;;;2.63;2.53;;;27.10;45.20;;;;;;20771;6815;117143;-78
2023/07/28 11:43:59;;;;;;;3.10;2.73;;;26.80;45.80;;;;;;20783;6815;119097;-73
2023/07/28 11:46:41;;;;;;;15.85;14.35;;;26.30;46.50;;;;;;20798;6815;117380;-74
2023/07/28 11:49:13;;;;;;;3.43;2.80;;;25.90;47.20;;;;;;20659;6815;117603;-74
2023/07/28 11:51:43;;;;;;;2.90;2.80;;;25.40;47.60;;;;;;20569;6815;310986;-75
2023/07/28 11:54:07;;;;;;;3.37;3.07;;;25.40;48.40;;;;;;20823;6815;66568;-81
2023/07/28 11:56:32;;;;;;;3.10;2.90;;;25.10;48.80;;;;;;20815;6815;116915;-80
2023/07/28 11:58:59;;;;;;;3.22;3.03;;;24.80;49.60;;;;;;20602;6815;306897;-82
2023/07/28 12:01:25;;;;;;;3.30;3.10;;;24.90;51.50;;;;;;20818;6815;121193;-76
2023/07/28 12:03:50;;;;;;;3.83;3.55;;;24.80;51.10;;;;;;20588;6815;307314;-81
2023/07/28 12:06:16;;;;;;;3.33;3.13;;;24.80;52.60;;;;;;20809;6815;119639;-80
2023/07/28 12:08:41;;;;;;;3.42;3.22;;;24.70;52.20;;;;;;20603;6815;307566;-83
2023/07/28 12:11:07;;;;;;;3.33;3.03;;;24.80;53.20;;;;;;20833;6815;117542;-83
2023/07/28 12:13:33;;;;;;;3.70;3.50;;;24.70;53.00;;;;;;20605;6815;280252;-83
2023/07/28 12:15:58;;;;;;;3.10;2.90;;;24.80;54.50;;;;;;20805;6815;117173;-75
2023/07/28 12:18:24;;;;;;;3.07;2.77;;;24.50;53.90;;;;;;20810;6815;118409;-75
2023/07/28 12:20:50;;;;;;;3.72;3.53;;;24.50;53.90;;;;;;20573;6815;304067;-75
2023/07/28 12:23:16;;;;;;;3.70;3.40;;;24.60;54.00;;;;;;20578;6815;309338;-75
2023/07/28 12:25:41;;;;;;;3.40;3.20;;;24.90;54.10;;;;;;20574;6814;310319;-75
2023/07/28 12:28:07;;;;;;;3.50;3.20;;;25.20;53.40;;;;;;20818;6815;117718;-75
2023/07/28 12:30:32;;;;;;;3.78;3.50;;;25.10;53.20;;;;;;20593;6815;293322;-75
2023/07/28 12:33:00;;;;;;;3.83;3.40;;;25.20;54.00;;;;;;20587;6815;277354;-75
2023/07/28 12:35:26;;;;;;;4.00;3.70;;;25.50;53.50;;;;;;20590;6815;307234;-75
2023/07/28 12:37:51;;;;;;;3.73;3.53;;;25.70;53.40;;;;;;20763;6815;124419;-75
2023/07/28 12:40:16;;;;;;;3.95;3.65;;;25.60;53.00;;;;;;20590;6815;282026;-75
2023/07/28 12:42:41;;;;;;;3.60;3.40;;;25.70;52.30;;;;;;20592;6815;305968;-75
2023/07/28 12:45:08;;;;;;;3.23;3.03;;;26.00;51.90;;;;;;20811;6815;117306;-75
2023/07/28 12:47:33;;;;;;;3.10;2.80;;;25.90;52.10;;;;;;20808;6815;116938;-75
2023/07/28 12:49:58;;;;;;;2.95;2.83;;;25.70;52.30;;;;;;20786;6815;118528;-75
2023/07/28 12:52:24;;;;;;;2.97;2.87;;;25.50;52.50;;;;;;20832;6815;68614;-79
2023/07/28 12:54:49;;;;;;;3.57;3.37;;;25.30;52.70;;;;;;20601;6815;291411;-76
2023/07/28 12:57:15;;;;;;;4.70;3.17;;;25.40;52.20;;;;;;20815;6815;117376;-79
2023/07/28 12:59:41;;;;;;;3.75;3.50;;;25.40;52.10;;;;;;20580;6815;280613;-78
2023/07/28 13:02:11;;;;;;;4.00;3.60;;;25.80;51.40;;;;;;20593;6815;307276;-78
2023/07/28 13:04:34;;;;;;;3.57;3.30;;;25.80;51.30;;;;;;20539;6815;284220;-77
2023/07/28 13:06:59;;;;;;;3.80;3.50;;;26.10;51.00;;;;;;20568;6815;306604;-77
2023/07/28 13:09:28;;;;;;;3.62;3.42;;;26.20;50.50;;;;;;20600;6815;290535;-79
2023/07/28 13:11:54;;;;;;;3.10;2.97;;;26.30;49.50;;;;;;20781;6815;117980;-79
2023/07/28 13:14:20;;;;;;;3.30;3.10;;;26.20;50.00;;;;;;20578;6815;335618;-75
2023/07/28 13:16:49;;;;;;;3.07;2.87;;;26.30;49.90;;;;;;20812;6815;117453;-75
2023/07/28 13:19:14;;;;;;;3.47;3.28;;;26.30;50.10;;;;;;20597;6815;328602;-75
2023/07/28 13:21:40;;;;;;;3.33;3.07;;;26.40;50.20;;;;;;20709;6815;121168;-76
2023/07/28 13:24:05;;;;;;;3.60;3.40;;;26.50;50.20;;;;;;20786;6815;117764;-75
2023/07/28 13:26:31;;;;;;;3.60;3.30;;;26.30;50.40;;;;;;20770;6815;68385;-78
2023/07/28 13:28:58;;;;;;;3.77;3.47;;;26.10;50.70;;;;;;20560;6815;298427;-78
2023/07/28 13:31:26;;;;;;;3.50;3.20;;;26.30;51.10;;;;;;20793;6815;117052;-79
2023/07/28 13:33:51;;;;;;;3.50;3.30;;;26.30;51.10;;;;;;20556;6815;276562;-79
2023/07/28 13:36:17;;;;;;;3.60;3.40;;;26.40;52.00;;;;;;20575;6815;306555;-78
2023/07/28 13:38:45;;;;;;;3.50;3.30;;;26.60;51.80;;;;;;20574;6814;277217;-78
2023/07/28 13:41:10;;;;;;;3.40;3.20;;;26.80;51.70;;;;;;20786;6815;117350;-78
2023/07/28 13:43:37;;;;;;;2.97;2.77;;;26.60;51.80;;;;;;20827;6815;117085;-78
2023/07/28 13:46:02;;;;;;;3.80;3.50;;;26.20;52.30;;;;;;20559;6815;305868;-78
2023/07/28 13:51:54;;;;;;;3.90;3.70;;;26.30;53.50;;;;;;20514;6815;306526;-80
2023/07/28 13:54:20;;;;;;;3.67;3.37;;;26.40;53.80;;;;;;20789;6815;118220;-77
2023/07/28 13:56:45;;;;;;;3.40;3.10;;;26.10;53.20;;;;;;20802;6815;117996;-77
2023/07/28 13:59:11;;;;;;;3.78;3.47;;;25.70;52.90;;;;;;20590;6815;277612;-77
2023/07/28 14:01:39;;;;;;;3.70;3.40;;;25.70;50.00;;;;;;20590;6815;277429;-79
2023/07/28 14:04:04;;;;;;;3.33;3.13;;;25.70;50.00;;;;;;20555;6815;120343;-76
2023/07/28 14:06:30;;;;;;;3.77;3.50;;;25.40;50.00;;;;;;20762;6815;117346;-74
2023/07/28 14:08:55;;;;;;;3.90;3.60;;;25.10;50.50;;;;;;20518;6815;277173;-74
2023/07/28 14:11:21;;;;;;;3.50;3.20;;;25.10;49.70;;;;;;20529;6815;281061;-71
2023/07/28 14:13:47;;;;;;;3.17;2.97;;;25.30;49.90;;;;;;20716;6815;118089;-72
2023/07/28 14:16:12;;;;;;;3.67;3.45;;;25.10;49.70;;;;;;20532;6815;308559;-72
2023/07/28 14:18:38;;;;;;;3.30;3.17;;;25.10;49.50;;;;;;20760;6815;118552;-71
2023/07/28 14:21:04;;;;;;;4.72;4.43;;;24.90;49.80;;;;;;20570;6815;283355;-74
2023/07/28 14:23:30;;;;;;;5.03;4.53;;;25.00;49.60;;;;;;20805;6815;120502;-72
2023/07/28 14:25:57;;;;;;;3.77;3.40;;;24.90;49.70;;;;;;20820;6815;117356;-71
2023/07/28 14:28:21;;;;;;;3.40;3.22;;;24.80;50.50;;;;;;20671;6815;309559;-71
2023/07/28 14:30:47;;;;;;;2.80;2.70;;;24.90;50.20;;;;;;20839;6815;116921;-72
2023/07/28 14:33:14;;;;;;;3.50;3.30;;;25.00;50.30;;;;;;20592;6815;308858;-72
2023/07/28 14:35:39;;;;;;;3.37;3.17;;;25.00;50.30;;;;;;20566;6815;305781;-71
2023/07/28 14:38:04;;;;;;;3.30;3.10;;;25.30;49.90;;;;;;20803;6815;117247;-72
2023/07/28 14:40:31;;;;;;;3.47;3.28;;;25.30;50.20;;;;;;20595;6815;276703;-71
2023/07/28 14:42:56;;;;;;;3.10;2.83;;;25.30;50.20;;;;;;20799;6815;117068;-72
2023/07/28 14:45:22;;;;;;;3.20;3.00;;;25.20;50.00;;;;;;20798;6815;117081;-71
2023/07/28 14:47:47;;;;;;;3.50;3.30;;;25.00;50.50;;;;;;20575;6815;280002;-71
2023/07/28 14:50:13;;;;;;;3.40;3.20;;;25.10;50.80;;;;;;20398;6814;278888;-71
2023/07/28 14:52:48;;;;;;;3.53;3.23;;;25.70;50.10;;;;;;20497;6815;337839;-72
2023/07/28 14:55:18;;;;;;;3.40;3.20;;;25.70;50.00;;;;;;20325;6815;308436;-73
2023/07/28 14:57:44;;;;;;;3.37;3.17;;;25.90;50.00;;;;;;20274;6815;281539;-71
2023/07/28 15:00:10;;;;;;;3.27;3.07;;;26.00;49.40;;;;;;20573;6815;117171;-73
2023/07/28 15:02:38;;;;;;;2.83;2.73;;;25.90;49.80;;;;;;20693;6815;117340;-73
2023/07/28 15:05:04;;;;;;;3.23;3.00;;;25.60;50.60;;;;;;20786;6815;117622;-77
2023/07/28 15:07:29;;;;;;;3.03;2.83;;;25.40;50.80;;;;;;20799;6815;120137;-75
2023/07/28 15:09:56;;;;;;;3.92;3.65;;;25.50;50.10;;;;;;20572;6815;309119;-77
2023/07/28 15:12:21;;;;;;;3.03;2.83;;;25.40;50.50;;;;;;20799;6815;120130;-74
2023/07/28 15:14:48;;;;;;;3.63;3.43;;;25.70;51.00;;;;;;20573;6815;334015;-74
2023/07/28 15:17:14;;;;;;;3.47;3.27;;;25.70;51.00;;;;;;20797;6815;121398;-73
2023/07/28 15:19:39;;;;;;;2.97;2.83;;;25.70;50.80;;;;;;20771;6815;117112;-74
2023/07/28 15:22:25;;;;;;;3.20;3.00;;;25.60;50.80;;;;;;20792;6815;117127;-73
2023/07/28 15:24:51;;;;;;;3.60;3.30;;;25.40;50.70;;;;;;20578;6815;310153;-73
2023/07/28 15:27:17;;;;;;;3.50;3.23;;;25.60;50.30;;;;;;20802;6815;116944;-75
2023/07/28 15:29:43;;;;;;;3.73;3.53;;;25.60;50.30;;;;;;20581;6815;298541;-74